Time;durP1;ratioP1;P1;durP2;ratioP2;P2;SDS_P1;SDS_P2;PMS_P1;PMS_P2;Temp;Humidity;BMP_temperature;BMP_pressure;BME280_temperature;BME280_humidity;BME280_pressure;Samples;Min_cycle;Max_cycle;Signal;HPM_P1;HPM_P2
2021/12/24 00:00:49;;;;;;;58.30;33.22;;;;;;;;;;5024948;28;20075;-77
2021/12/24 00:03:15;;;;;;;60.42;34.95;;;;;;;;;;5032586;28;20026;-77
2021/12/24 00:05:41;;;;;;;59.17;37.28;;;;;;;;;;5032165;28;20033;-77
2021/12/24 00:08:07;;;;;;;63.65;38.65;;;;;;;;;;5031768;28;20029;-77
2021/12/24 00:10:34;;;;;;;56.60;38.40;;;;;;;;;;5032634;28;20022;-80
2021/12/24 00:13:05;;;;;;;52.60;33.83;;;;;;;;;;5034333;28;20246;-80
2021/12/24 00:37:07;;;;;;;52.17;31.02;;;;;;;;;;5023653;28;20428;-77
2021/12/24 00:39:39;;;;;;;52.88;30.10;;;;;;;;;;5032282;28;20041;-78
2021/12/24 00:42:05;;;;;;;49.88;29.42;;;;;;;;;;5033570;28;20411;-77
2021/12/24 00:44:31;;;;;;;49.33;30.08;;;;;;;;;;5033926;28;20104;-77
2021/12/24 00:46:57;;;;;;;50.40;30.83;;;;;;;;;;5033564;28;20075;-78
2021/12/24 00:49:23;;;;;;;51.20;31.77;;;;;;;;;;5032261;28;20103;-77
2021/12/24 00:52:17;;;;;;;49.88;30.02;;;;;;;;;;5029269;28;20045;-77
2021/12/24 00:55:03;;;;;;;49.03;29.35;;;;;;;;;;5033926;28;20018;-77
2021/12/24 00:57:29;;;;;;;56.58;33.15;;;;;;;;;;5033545;28;20029;-77
2021/12/24 00:59:55;;;;;;;59.80;36.28;;;;;;;;;;5032799;28;20475;-77
2021/12/24 01:02:21;;;;;;;55.75;34.88;;;;;;;;;;5033284;28;20029;-77
2021/12/24 01:04:47;;;;;;;57.30;33.08;;;;;;;;;;5033272;28;20351;-77
2021/12/24 01:07:13;;;;;;;51.55;33.50;;;;;;;;;;5034591;28;20044;-78
2021/12/24 01:09:39;;;;;;;62.25;36.53;;;;;;;;;;5035415;28;20057;-77
2021/12/24 01:12:05;;;;;;;56.17;33.47;;;;;;;;;;5046787;28;20017;-77
2021/12/24 01:14:31;;;;;;;51.22;33.85;;;;;;;;;;5047272;28;20633;-77
2021/12/24 01:17:12;;;;;;;52.58;32.85;;;;;;;;;;5047674;28;20036;-77
2021/12/24 01:19:41;;;;;;;58.30;34.63;;;;;;;;;;5035518;28;20025;-77
2021/12/24 01:24:47;;;;;;;56.72;35.85;;;;;;;;;;5037218;28;20034;-77
2021/12/24 01:40:51;;;;;;;54.08;32.45;;;;;;;;;;5036320;28;20037;-77
2021/12/24 01:43:17;;;;;;;51.25;32.50;;;;;;;;;;5036526;28;20474;-77
2021/12/24 01:45:46;;;;;;;53.17;32.70;;;;;;;;;;5036533;28;20033;-76
2021/12/24 01:48:12;;;;;;;52.58;33.92;;;;;;;;;;5021478;28;20045;-77
2021/12/24 01:50:42;;;;;;;50.20;32.45;;;;;;;;;;5036919;28;20045;-77
2021/12/24 01:53:09;;;;;;;52.33;30.80;;;;;;;;;;5036202;28;20017;-77
2021/12/24 01:55:35;;;;;;;55.45;33.95;;;;;;;;;;5035593;28;20045;-77
2021/12/24 01:58:01;;;;;;;54.88;33.20;;;;;;;;;;5035583;28;20207;-77
2021/12/24 02:00:29;;;;;;;54.65;32.80;;;;;;;;;;5035096;28;20064;-76
2021/12/24 02:02:55;;;;;;;47.92;32.25;;;;;;;;;;5035889;28;20363;-77
2021/12/24 02:05:21;;;;;;;52.85;33.50;;;;;;;;;;5036619;28;20029;-77
2021/12/24 02:07:47;;;;;;;54.13;33.15;;;;;;;;;;5034844;28;20033;-77
2021/12/24 02:10:14;;;;;;;50.65;32.65;;;;;;;;;;5035548;28;20037;-77
2021/12/24 02:12:41;;;;;;;58.88;33.95;;;;;;;;;;5034377;28;20187;-77
2021/12/24 02:15:12;;;;;;;49.25;31.33;;;;;;;;;;5033895;28;20040;-77
2021/12/24 02:28:40;;;;;;;51.00;32.63;;;;;;;;;;5034587;28;20060;-77
2021/12/24 02:31:08;;;;;;;52.40;32.08;;;;;;;;;;5034475;28;20034;-77
2021/12/24 02:33:34;;;;;;;50.72;33.08;;;;;;;;;;5035679;28;20052;-77
2021/12/24 02:36:00;;;;;;;62.83;36.25;;;;;;;;;;5035200;28;20021;-77
2021/12/24 02:38:26;;;;;;;59.45;34.17;;;;;;;;;;5034120;28;20468;-77
2021/12/24 02:40:52;;;;;;;55.35;35.13;;;;;;;;;;5042168;28;20053;-77
2021/12/24 02:43:21;;;;;;;56.35;33.50;;;;;;;;;;5042875;28;20133;-77
2021/12/24 02:45:49;;;;;;;57.25;35.92;;;;;;;;;;5035290;28;20025;-77
2021/12/24 02:53:58;;;;;;;55.83;34.90;;;;;;;;;;5031262;28;20126;-78
2021/12/24 02:56:35;;;;;;;51.60;33.13;;;;;;;;;;5023361;28;20390;-77
2021/12/24 02:59:03;;;;;;;55.38;32.97;;;;;;;;;;5034126;28;20025;-77
2021/12/24 03:01:30;;;;;;;58.60;33.88;;;;;;;;;;5035278;28;20032;-78
2021/12/24 03:03:57;;;;;;;57.95;35.70;;;;;;;;;;5034920;28;20499;-78
2021/12/24 03:06:26;;;;;;;59.08;35.65;;;;;;;;;;5033431;28;20040;-78
2021/12/24 03:08:52;;;;;;;54.30;32.55;;;;;;;;;;5033473;28;20514;-76
2021/12/24 03:11:18;;;;;;;58.55;35.92;;;;;;;;;;5034584;28;20036;-78
2021/12/24 03:13:44;;;;;;;53.00;35.38;;;;;;;;;;5034645;28;20132;-77
2021/12/24 03:16:11;;;;;;;54.28;35.03;;;;;;;;;;5035313;28;20034;-78
2021/12/24 03:18:39;;;;;;;55.92;36.35;;;;;;;;;;5033812;28;20099;-78
2021/12/24 03:23:36;;;;;;;58.78;37.53;;;;;;;;;;5034677;28;20052;-78
2021/12/24 03:26:02;;;;;;;53.95;34.60;;;;;;;;;;5034824;28;20052;-78
2021/12/24 03:28:28;;;;;;;61.63;36.80;;;;;;;;;;5033940;28;20014;-77
2021/12/24 03:30:54;;;;;;;61.78;36.78;;;;;;;;;;5034213;28;20403;-78
2021/12/24 03:33:20;;;;;;;59.40;35.58;;;;;;;;;;5034633;28;20030;-78
2021/12/24 03:35:46;;;;;;;56.40;33.80;;;;;;;;;;5035121;28;20372;-78
2021/12/24 03:38:12;;;;;;;57.45;34.13;;;;;;;;;;5033019;28;20079;-77
2021/12/24 03:40:38;;;;;;;56.60;34.17;;;;;;;;;;5034040;28;20025;-77
2021/12/24 03:43:04;;;;;;;55.17;36.72;;;;;;;;;;5033859;28;20123;-78
2021/12/24 03:45:40;;;;;;;52.83;33.65;;;;;;;;;;5034383;28;20636;-77
2021/12/24 03:48:16;;;;;;;52.22;32.63;;;;;;;;;;5032953;28;20439;-77
2021/12/24 03:51:52;;;;;;;57.08;32.95;;;;;;;;;;5033501;28;20387;-77
2021/12/24 03:56:21;;;;;;;53.92;32.92;;;;;;;;;;5025975;28;20136;-77
2021/12/24 03:58:47;;;;;;;56.10;33.00;;;;;;;;;;5032998;28;20057;-77
2021/12/24 04:01:13;;;;;;;55.00;32.47;;;;;;;;;;5033154;28;20430;-77
2021/12/24 04:03:39;;;;;;;51.90;33.72;;;;;;;;;;5033369;28;20424;-77
2021/12/24 04:06:05;;;;;;;55.63;33.72;;;;;;;;;;5032621;28;20475;-77
2021/12/24 04:08:32;;;;;;;52.58;34.53;;;;;;;;;;5033882;28;20045;-77
2021/12/24 04:10:58;;;;;;;51.58;33.08;;;;;;;;;;5033637;28;20030;-77
2021/12/24 04:13:24;;;;;;;54.22;34.35;;;;;;;;;;5032380;28;20025;-77
2021/12/24 04:15:50;;;;;;;53.67;30.38;;;;;;;;;;5032011;28;20032;-77
2021/12/24 04:18:23;;;;;;;56.78;36.22;;;;;;;;;;5032821;28;20473;-77
2021/12/24 04:26:18;;;;;;;60.35;33.90;;;;;;;;;;5033091;28;20075;-77
2021/12/24 04:28:44;;;;;;;57.85;34.58;;;;;;;;;;5033083;28;20030;-78
2021/12/24 04:31:10;;;;;;;53.35;31.90;;;;;;;;;;5033144;28;20048;-77
2021/12/24 04:33:39;;;;;;;49.50;30.52;;;;;;;;;;5032690;28;20398;-78
2021/12/24 04:52:17;;;;;;;39.22;20.10;;;;;;;;;;5028487;28;20052;-78
2021/12/24 05:03:11;;;;;;;11.38;6.75;;;;;;;;;;5038934;28;20024;-77
2021/12/24 05:10:38;;;;;;;11.25;6.65;;;;;;;;;;5032959;28;20076;-79
2021/12/24 05:13:05;;;;;;;11.85;6.30;;;;;;;;;;5014956;28;20030;-78
2021/12/24 05:15:34;;;;;;;11.93;7.00;;;;;;;;;;5014508;28;20050;-78
2021/12/24 05:23:11;;;;;;;10.52;6.00;;;;;;;;;;5032676;28;20040;-77
2021/12/24 05:25:41;;;;;;;10.45;6.55;;;;;;;;;;5034037;28;20037;-78
2021/12/24 05:28:07;;;;;;;12.40;6.22;;;;;;;;;;5033071;28;20079;-77
2021/12/24 05:30:33;;;;;;;10.85;6.32;;;;;;;;;;5038538;28;20039;-77
2021/12/24 05:32:59;;;;;;;9.90;6.65;;;;;;;;;;5041386;28;20061;-79
2021/12/24 05:35:25;;;;;;;11.15;6.10;;;;;;;;;;5031080;28;20049;-78
2021/12/24 05:37:51;;;;;;;11.43;6.00;;;;;;;;;;5032017;28;20032;-77
2021/12/24 05:40:17;;;;;;;11.43;6.28;;;;;;;;;;5033273;28;20049;-77
2021/12/24 05:42:43;;;;;;;9.05;5.70;;;;;;;;;;5032521;28;20048;-78
2021/12/24 05:45:10;;;;;;;11.05;6.22;;;;;;;;;;5030615;28;20482;-77
2021/12/24 05:47:37;;;;;;;10.63;6.13;;;;;;;;;;5029146;28;20104;-78
2021/12/24 05:50:05;;;;;;;9.70;6.22;;;;;;;;;;5030654;28;20072;-77
2021/12/24 05:52:32;;;;;;;9.05;6.20;;;;;;;;;;5032409;28;20044;-78
2021/12/24 05:54:58;;;;;;;9.07;5.50;;;;;;;;;;5035719;28;20076;-78
2021/12/24 05:57:24;;;;;;;10.48;5.20;;;;;;;;;;5032724;28;20490;-78
2021/12/24 05:59:50;;;;;;;9.50;5.18;;;;;;;;;;5036239;28;20487;-77
2021/12/24 06:02:16;;;;;;;11.55;6.75;;;;;;;;;;5047394;28;20025;-78
2021/12/24 06:04:42;;;;;;;10.98;6.10;;;;;;;;;;5048705;28;20017;-78
2021/12/24 06:07:08;;;;;;;13.02;5.93;;;;;;;;;;5044322;28;20101;-78
2021/12/24 06:09:34;;;;;;;8.98;5.03;;;;;;;;;;5038864;28;20061;-78
2021/12/24 06:12:00;;;;;;;11.52;5.60;;;;;;;;;;5039975;28;20022;-78
2021/12/24 06:14:26;;;;;;;8.60;4.70;;;;;;;;;;5037923;28;20454;-78
2021/12/24 06:17:04;;;;;;;8.68;5.10;;;;;;;;;;5039666;28;20084;-78
2021/12/24 06:19:30;;;;;;;9.05;5.07;;;;;;;;;;5038404;28;20108;-78
2021/12/24 06:21:57;;;;;;;8.77;5.03;;;;;;;;;;5038634;28;20039;-78
2021/12/24 06:24:25;;;;;;;8.27;5.05;;;;;;;;;;5036651;28;20092;-78
2021/12/24 06:26:52;;;;;;;7.28;4.70;;;;;;;;;;5034495;28;20048;-77
2021/12/24 06:29:20;;;;;;;9.35;5.15;;;;;;;;;;5036297;28;20025;-77
2021/12/24 06:31:46;;;;;;;7.47;4.18;;;;;;;;;;5035898;28;20034;-78
2021/12/24 06:34:12;;;;;;;7.68;4.40;;;;;;;;;;5038041;28;20465;-79
2021/12/24 06:36:42;;;;;;;7.68;4.25;;;;;;;;;;5034978;28;20411;-78
2021/12/24 06:39:09;;;;;;;7.07;3.72;;;;;;;;;;5037191;28;20041;-78
2021/12/24 06:41:35;;;;;;;6.47;3.80;;;;;;;;;;5033579;28;20035;-78
2021/12/24 06:44:01;;;;;;;8.50;4.47;;;;;;;;;;5038082;28;20053;-79
2021/12/24 06:46:27;;;;;;;7.30;3.50;;;;;;;;;;5038008;28;20048;-78
2021/12/24 06:48:56;;;;;;;7.78;3.40;;;;;;;;;;5036923;28;20511;-78
2021/12/24 06:51:25;;;;;;;6.35;2.88;;;;;;;;;;5035289;28;20096;-78
2021/12/24 06:53:52;;;;;;;6.32;3.65;;;;;;;;;;5037622;28;20041;-78
2021/12/24 06:56:18;;;;;;;5.93;3.28;;;;;;;;;;5036642;28;20145;-78
2021/12/24 06:58:43;;;;;;;6.00;3.30;;;;;;;;;;5035782;28;20049;-78
2021/12/24 07:01:10;;;;;;;6.68;3.53;;;;;;;;;;5036433;28;20026;-78
2021/12/24 07:03:37;;;;;;;6.75;3.72;;;;;;;;;;5033929;28;20029;-80
2021/12/24 07:06:03;;;;;;;6.93;3.90;;;;;;;;;;5034762;28;20022;-78
2021/12/24 07:08:29;;;;;;;7.97;3.40;;;;;;;;;;5036488;28;20364;-78
2021/12/24 07:10:55;;;;;;;7.65;4.10;;;;;;;;;;5036193;28;20030;-79
2021/12/24 07:13:21;;;;;;;7.35;4.03;;;;;;;;;;5028137;28;20484;-79
2021/12/24 07:15:47;;;;;;;5.95;3.55;;;;;;;;;;5033706;28;20129;-79
2021/12/24 07:18:13;;;;;;;6.68;3.80;;;;;;;;;;5036146;28;20022;-78
2021/12/24 07:20:39;;;;;;;7.03;3.40;;;;;;;;;;5035600;28;20033;-78
2021/12/24 07:23:05;;;;;;;7.53;4.07;;;;;;;;;;5035715;28;20039;-78
2021/12/24 07:25:32;;;;;;;6.20;2.92;;;;;;;;;;5034139;28;20120;-79
2021/12/24 07:27:58;;;;;;;5.57;2.90;;;;;;;;;;5032091;28;20080;-78
2021/12/24 07:30:24;;;;;;;6.25;2.75;;;;;;;;;;5032688;28;20088;-77
2021/12/24 07:32:51;;;;;;;7.07;3.95;;;;;;;;;;5033327;28;20026;-78
2021/12/24 07:35:17;;;;;;;6.82;2.92;;;;;;;;;;5034307;28;20099;-80
2021/12/24 07:37:43;;;;;;;5.82;2.60;;;;;;;;;;5027561;28;20646;-77
2021/12/24 07:40:10;;;;;;;7.30;3.15;;;;;;;;;;5034093;28;20365;-78
2021/12/24 07:42:38;;;;;;;5.65;2.75;;;;;;;;;;5033727;28;20029;-78
2021/12/24 07:45:05;;;;;;;5.72;3.10;;;;;;;;;;5033380;28;20032;-79
2021/12/24 07:47:36;;;;;;;7.07;2.85;;;;;;;;;;5033052;28;20013;-77
2021/12/24 07:50:16;;;;;;;5.07;2.70;;;;;;;;;;5032599;28;20053;-77
2021/12/24 07:52:50;;;;;;;8.95;3.38;;;;;;;;;;5033315;28;20042;-76
2021/12/24 07:55:16;;;;;;;6.00;3.03;;;;;;;;;;5034114;28;20032;-77
2021/12/24 07:57:42;;;;;;;5.50;2.70;;;;;;;;;;5033747;28;20449;-78
2021/12/24 08:00:08;;;;;;;5.93;2.70;;;;;;;;;;5033657;28;20033;-77
2021/12/24 08:02:35;;;;;;;5.82;2.78;;;;;;;;;;5029266;28;20384;-79
2021/12/24 08:05:01;;;;;;;6.13;2.45;;;;;;;;;;5028631;28;20029;-77
2021/12/24 08:07:27;;;;;;;5.45;2.75;;;;;;;;;;5035701;28;20041;-77
2021/12/24 08:09:53;;;;;;;5.43;2.80;;;;;;;;;;5034142;28;20116;-77
2021/12/24 08:12:23;;;;;;;5.65;2.88;;;;;;;;;;5034805;28;20029;-79
2021/12/24 08:14:49;;;;;;;5.78;2.50;;;;;;;;;;5039144;28;20079;-77
2021/12/24 08:17:16;;;;;;;5.57;2.70;;;;;;;;;;5043251;28;20266;-77
2021/12/24 08:19:42;;;;;;;5.20;2.33;;;;;;;;;;5035920;28;20517;-80
2021/12/24 08:22:10;;;;;;;7.47;2.22;;;;;;;;;;5033958;28;20033;-80
2021/12/24 08:24:36;;;;;;;5.68;2.58;;;;;;;;;;5035164;28;20435;-79
2021/12/24 08:27:02;;;;;;;7.22;2.90;;;;;;;;;;5036324;28;20026;-79
2021/12/24 08:29:28;;;;;;;5.38;2.35;;;;;;;;;;5033991;28;20041;-78
2021/12/24 08:31:54;;;;;;;7.22;3.42;;;;;;;;;;5034551;28;20029;-81
2021/12/24 08:34:21;;;;;;;5.22;2.45;;;;;;;;;;5035794;28;20395;-79
2021/12/24 08:36:49;;;;;;;5.10;2.22;;;;;;;;;;5034989;28;20033;-76
2021/12/24 08:39:17;;;;;;;5.10;2.40;;;;;;;;;;5033697;28;20024;-79
2021/12/24 08:41:43;;;;;;;5.45;2.72;;;;;;;;;;5033408;28;20033;-79
2021/12/24 08:44:09;;;;;;;5.40;2.55;;;;;;;;;;5020174;28;20577;-79
2021/12/24 08:46:36;;;;;;;5.90;2.55;;;;;;;;;;5031204;28;20507;-79
2021/12/24 08:49:03;;;;;;;5.80;2.30;;;;;;;;;;5034817;28;20087;-79
2021/12/24 08:51:29;;;;;;;5.40;2.58;;;;;;;;;;5033275;28;20055;-78
2021/12/24 08:53:56;;;;;;;5.72;2.25;;;;;;;;;;5035150;28;20120;-78
2021/12/24 08:56:22;;;;;;;5.25;2.42;;;;;;;;;;5033166;28;20029;-79
2021/12/24 08:58:48;;;;;;;4.65;2.22;;;;;;;;;;5034172;28;20030;-79
2021/12/24 09:01:14;;;;;;;6.07;2.50;;;;;;;;;;5032399;28;20030;-78
2021/12/24 09:03:40;;;;;;;4.45;2.10;;;;;;;;;;5034477;28;20022;-79
2021/12/24 09:06:06;;;;;;;5.35;2.42;;;;;;;;;;5033570;28;20472;-79
2021/12/24 09:08:32;;;;;;;5.00;2.22;;;;;;;;;;5034631;28;20029;-78
2021/12/24 09:11:00;;;;;;;5.25;2.05;;;;;;;;;;5026227;28;20026;-79
2021/12/24 09:13:26;;;;;;;4.78;2.15;;;;;;;;;;5032389;28;20034;-77
2021/12/24 09:15:53;;;;;;;4.47;1.75;;;;;;;;;;5032066;28;20033;-77
2021/12/24 09:18:20;;;;;;;4.40;1.95;;;;;;;;;;5033158;28;20021;-77
2021/12/24 09:20:47;;;;;;;5.13;2.00;;;;;;;;;;5034390;28;20125;-80
2021/12/24 09:23:13;;;;;;;5.50;2.70;;;;;;;;;;5028082;28;20028;-79
2021/12/24 09:25:40;;;;;;;6.53;2.53;;;;;;;;;;5033442;28;20036;-79
2021/12/24 09:28:07;;;;;;;5.20;2.30;;;;;;;;;;5035730;28;20029;-79
2021/12/24 09:30:33;;;;;;;5.50;2.35;;;;;;;;;;5036673;28;20061;-78
2021/12/24 09:33:00;;;;;;;5.20;2.17;;;;;;;;;;5036694;28;20037;-78
2021/12/24 09:35:26;;;;;;;5.68;2.38;;;;;;;;;;5037061;28;20079;-79
2021/12/24 09:37:53;;;;;;;4.88;2.05;;;;;;;;;;5038621;28;20021;-78
2021/12/24 09:40:19;;;;;;;4.50;1.83;;;;;;;;;;5038422;28;20024;-79
2021/12/24 09:42:45;;;;;;;4.13;1.77;;;;;;;;;;5037123;28;20033;-80
2021/12/24 09:45:12;;;;;;;5.55;1.70;;;;;;;;;;5037401;28;20033;-79
2021/12/24 09:47:38;;;;;;;4.40;1.90;;;;;;;;;;5035807;28;20034;-79
2021/12/24 09:50:06;;;;;;;4.45;1.80;;;;;;;;;;5036951;28;20030;-78
2021/12/24 09:52:33;;;;;;;4.60;2.10;;;;;;;;;;5037979;28;20041;-77
2021/12/24 09:55:06;;;;;;;5.40;2.08;;;;;;;;;;5038296;28;20029;-78
2021/12/24 09:57:32;;;;;;;4.85;2.17;;;;;;;;;;5036762;28;20048;-78
2021/12/24 09:59:58;;;;;;;7.20;2.35;;;;;;;;;;5034658;28;20201;-78
2021/12/24 10:02:28;;;;;;;4.85;2.20;;;;;;;;;;5037162;28;20436;-78
2021/12/24 10:04:54;;;;;;;4.15;1.95;;;;;;;;;;5037253;28;20294;-78
2021/12/24 10:07:24;;;;;;;4.97;2.17;;;;;;;;;;5032172;28;20036;-78
2021/12/24 10:09:51;;;;;;;5.07;1.90;;;;;;;;;;5032615;28;20025;-78
2021/12/24 10:12:18;;;;;;;4.65;2.08;;;;;;;;;;5035691;28;20028;-78
2021/12/24 10:14:48;;;;;;;4.80;2.00;;;;;;;;;;5037252;28;20053;-78
2021/12/24 10:17:33;;;;;;;4.25;1.90;;;;;;;;;;5037018;28;20097;-77
2021/12/24 10:20:02;;;;;;;4.85;2.00;;;;;;;;;;5035913;28;20029;-78
2021/12/24 10:22:28;;;;;;;4.57;2.00;;;;;;;;;;5035560;28;20022;-78
2021/12/24 10:24:58;;;;;;;5.53;1.90;;;;;;;;;;5036696;28;20033;-78
2021/12/24 10:27:32;;;;;;;5.60;1.88;;;;;;;;;;5037324;28;20025;-78
2021/12/24 10:29:58;;;;;;;5.60;2.00;;;;;;;;;;5033674;28;20518;-78
2021/12/24 10:32:25;;;;;;;5.53;2.15;;;;;;;;;;5037006;28;20087;-78
2021/12/24 10:34:51;;;;;;;5.93;2.60;;;;;;;;;;5036479;28;20136;-78
2021/12/24 10:37:18;;;;;;;4.97;2.67;;;;;;;;;;5036117;28;20171;-77
2021/12/24 10:39:49;;;;;;;6.10;2.53;;;;;;;;;;5035522;28;20021;-78
2021/12/24 10:42:17;;;;;;;4.72;2.05;;;;;;;;;;5036613;28;20100;-78
2021/12/24 10:44:44;;;;;;;5.00;2.60;;;;;;;;;;5037864;28;20052;-77
2021/12/24 10:47:12;;;;;;;3.95;1.63;;;;;;;;;;5037176;28;20037;-77
2021/12/24 10:52:15;;;;;;;4.57;1.60;;;;;;;;;;5043940;28;20037;-77
2021/12/24 10:54:59;;;;;;;4.93;2.10;;;;;;;;;;5042568;28;20053;-78
2021/12/24 10:57:27;;;;;;;4.78;2.08;;;;;;;;;;5037724;28;20093;-77
2021/12/24 10:59:54;;;;;;;7.22;2.33;;;;;;;;;;5040963;28;20075;-77
2021/12/24 11:02:24;;;;;;;4.88;2.17;;;;;;;;;;5037462;28;20021;-78
2021/12/24 11:04:53;;;;;;;4.43;2.05;;;;;;;;;;5034457;28;20033;-79
2021/12/24 11:07:35;;;;;;;4.38;2.28;;;;;;;;;;5036642;28;20373;-78
2021/12/24 11:10:22;;;;;;;4.85;2.10;;;;;;;;;;5034919;28;20442;-78
2021/12/24 11:12:55;;;;;;;4.90;2.08;;;;;;;;;;5036492;28;20332;-78
2021/12/24 11:15:23;;;;;;;3.50;1.60;;;;;;;;;;5035906;28;20033;-78
2021/12/24 11:17:50;;;;;;;5.30;2.25;;;;;;;;;;5034405;28;20021;-78
2021/12/24 11:20:16;;;;;;;4.53;2.00;;;;;;;;;;5036379;28;20021;-79
2021/12/24 11:22:56;;;;;;;5.53;2.60;;;;;;;;;;5036858;28;20434;-78
2021/12/24 11:28:27;;;;;;;5.03;1.73;;;;;;;;;;5033299;28;20064;-78
2021/12/24 11:30:55;;;;;;;4.28;1.90;;;;;;;;;;5032825;28;20052;-79
2021/12/24 11:33:24;;;;;;;3.45;1.50;;;;;;;;;;5035573;28;20032;-77
2021/12/24 11:35:50;;;;;;;3.70;1.85;;;;;;;;;;5034352;28;20021;-79
2021/12/24 11:38:18;;;;;;;4.80;2.20;;;;;;;;;;5033885;28;20025;-78
2021/12/24 11:40:48;;;;;;;4.57;2.30;;;;;;;;;;5034505;28;20033;-79
2021/12/24 11:43:14;;;;;;;4.00;1.63;;;;;;;;;;5033764;28;20031;-78
2021/12/24 11:45:41;;;;;;;3.97;1.80;;;;;;;;;;5027763;28;20025;-79
2021/12/24 11:48:07;;;;;;;4.20;1.80;;;;;;;;;;5033059;28;20031;-78
2021/12/24 11:50:34;;;;;;;4.75;2.20;;;;;;;;;;5035081;28;20448;-79
2021/12/24 11:53:04;;;;;;;5.68;2.55;;;;;;;;;;5035306;28;20059;-78
2021/12/24 11:55:34;;;;;;;5.18;2.20;;;;;;;;;;5034749;28;20534;-78
2021/12/24 11:58:02;;;;;;;5.25;2.53;;;;;;;;;;5022641;28;21357;-79
2021/12/24 12:00:32;;;;;;;5.10;2.60;;;;;;;;;;5033925;28;20034;-78
2021/12/24 12:02:59;;;;;;;5.35;2.28;;;;;;;;;;5033937;28;20040;-77
2021/12/24 12:05:32;;;;;;;6.75;2.60;;;;;;;;;;5033231;28;20118;-78
2021/12/24 12:08:17;;;;;;;5.28;3.10;;;;;;;;;;5027666;28;20018;-78
2021/12/24 12:10:50;;;;;;;5.82;2.63;;;;;;;;;;5033839;28;20022;-78
2021/12/24 12:13:55;;;;;;;6.28;2.75;;;;;;;;;;5033148;28;20021;-78
2021/12/24 12:16:28;;;;;;;5.25;3.00;;;;;;;;;;4991553;28;20034;-78
2021/12/24 12:19:14;;;;;;;5.90;2.72;;;;;;;;;;4991234;28;20452;-78
2021/12/24 12:21:42;;;;;;;6.15;2.80;;;;;;;;;;4992782;28;20038;-78
2021/12/24 12:26:39;;;;;;;6.35;2.63;;;;;;;;;;4991767;28;20058;-78
2021/12/24 12:29:22;;;;;;;5.15;2.90;;;;;;;;;;4976130;28;20153;-78
2021/12/24 12:31:50;;;;;;;6.18;2.72;;;;;;;;;;4991990;28;20259;-79
2021/12/24 12:34:43;;;;;;;5.47;2.47;;;;;;;;;;4992459;28;20129;-78
2021/12/24 12:37:12;;;;;;;5.23;2.93;;;;;;;;;;4972713;28;20045;-80
2021/12/24 12:39:38;;;;;;;6.15;3.08;;;;;;;;;;4993243;28;20476;-78
2021/12/24 12:42:05;;;;;;;5.45;2.83;;;;;;;;;;4992835;28;20054;-79
2021/12/24 12:44:32;;;;;;;5.78;2.60;;;;;;;;;;4992957;28;20026;-79
2021/12/24 12:47:09;;;;;;;4.93;2.38;;;;;;;;;;5005632;28;20464;-80
2021/12/24 12:49:36;;;;;;;6.00;3.00;;;;;;;;;;5034032;28;20086;-79
2021/12/24 12:52:06;;;;;;;5.25;2.70;;;;;;;;;;5033149;28;20045;-77
2021/12/24 12:54:52;;;;;;;6.82;3.00;;;;;;;;;;5032344;28;20033;-78
2021/12/24 12:57:38;;;;;;;7.03;3.38;;;;;;;;;;5032932;28;20033;-78
2021/12/24 13:00:22;;;;;;;5.10;2.75;;;;;;;;;;5031708;28;20127;-77
2021/12/24 13:03:07;;;;;;;5.47;2.80;;;;;;;;;;5035726;28;20045;-78
2021/12/24 13:05:33;;;;;;;5.97;2.83;;;;;;;;;;5035793;28;20026;-77
2021/12/24 13:08:10;;;;;;;5.20;2.80;;;;;;;;;;5033705;28;20022;-77
2021/12/24 13:10:36;;;;;;;5.28;2.78;;;;;;;;;;5035598;28;20159;-78
2021/12/24 13:13:04;;;;;;;5.70;2.55;;;;;;;;;;5036985;28;20392;-77
2021/12/24 13:15:31;;;;;;;5.30;2.53;;;;;;;;;;5037449;28;20021;-78
2021/12/24 13:18:02;;;;;;;5.75;2.67;;;;;;;;;;5035317;28;20099;-76
2021/12/24 13:22:26;;;;;;;5.65;2.95;;;;;;;;;;5037976;28;20014;-78
2021/12/24 13:23:21;;;;;;;5.63;2.60;;;;;;;;;;5036598;28;20029;-77
2021/12/24 13:25:47;;;;;;;6.40;2.70;;;;;;;;;;5033895;28;20061;-80
2021/12/24 13:28:13;;;;;;;6.50;3.00;;;;;;;;;;5037353;28;20104;-78
2021/12/24 13:30:39;;;;;;;4.68;2.50;;;;;;;;;;5037922;28;20061;-79
2021/12/24 13:33:07;;;;;;;5.18;2.58;;;;;;;;;;5032708;28;20030;-78
2021/12/24 13:35:43;;;;;;;5.80;2.60;;;;;;;;;;5028973;28;20022;-78
2021/12/24 13:38:14;;;;;;;4.40;2.40;;;;;;;;;;5024046;28;20452;-80
2021/12/24 13:40:40;;;;;;;5.38;2.40;;;;;;;;;;5038035;28;20093;-77
2021/12/24 13:43:07;;;;;;;5.10;2.65;;;;;;;;;;5034441;28;20025;-76
2021/12/24 13:45:36;;;;;;;6.15;2.28;;;;;;;;;;5037699;28;20109;-78
2021/12/24 13:48:08;;;;;;;4.68;2.05;;;;;;;;;;5035676;28;20032;-78
2021/12/24 13:56:21;;;;;;;5.70;2.00;;;;;;;;;;5033439;28;20044;-78
2021/12/24 13:58:58;;;;;;;4.43;2.17;;;;;;;;;;5033396;28;20490;-78
2021/12/24 14:01:24;;;;;;;6.10;2.40;;;;;;;;;;5034265;28;20480;-78
2021/12/24 14:03:51;;;;;;;4.43;1.88;;;;;;;;;;5037600;28;20029;-78
2021/12/24 14:06:17;;;;;;;5.32;2.15;;;;;;;;;;5035845;28;20055;-79
2021/12/24 14:08:43;;;;;;;5.35;2.40;;;;;;;;;;5036039;28;20026;-78
2021/12/24 14:11:14;;;;;;;4.60;2.20;;;;;;;;;;5036514;28;20045;-78
2021/12/24 14:13:45;;;;;;;5.45;2.10;;;;;;;;;;5039712;28;20026;-78
2021/12/24 14:24:04;;;;;;;6.95;2.25;;;;;;;;;;5035064;28;20482;-77
2021/12/24 14:26:37;;;;;;;4.75;2.30;;;;;;;;;;5030167;28;20060;-78
2021/12/24 14:29:06;;;;;;;5.28;2.67;;;;;;;;;;5035016;28;20033;-78
2021/12/24 14:31:53;;;;;;;4.93;2.80;;;;;;;;;;5033232;28;20196;-78
2021/12/24 14:34:48;;;;;;;5.10;2.58;;;;;;;;;;5032049;28;20056;-77
2021/12/24 14:37:20;;;;;;;5.05;2.33;;;;;;;;;;5017126;28;20419;-79
2021/12/24 14:39:48;;;;;;;5.05;2.22;;;;;;;;;;5034020;28;20076;-78
2021/12/24 14:42:17;;;;;;;4.50;2.35;;;;;;;;;;5029206;28;20029;-78
2021/12/24 14:44:43;;;;;;;5.57;2.47;;;;;;;;;;5030828;28;20463;-77
2021/12/24 14:47:10;;;;;;;4.97;2.40;;;;;;;;;;5033650;28;20364;-77
2021/12/24 14:49:37;;;;;;;5.10;2.13;;;;;;;;;;5030803;28;20061;-77
2021/12/24 14:52:15;;;;;;;4.93;2.50;;;;;;;;;;5013473;28;20079;-77
2021/12/24 14:55:00;;;;;;;5.57;2.60;;;;;;;;;;5032303;28;20040;-77
2021/12/24 14:57:26;;;;;;;5.38;2.47;;;;;;;;;;5031615;28;20053;-76
2021/12/24 14:59:52;;;;;;;5.63;2.53;;;;;;;;;;5032096;28;20104;-77
2021/12/24 15:02:18;;;;;;;6.10;2.45;;;;;;;;;;5027789;28;20010;-77
2021/12/24 15:04:44;;;;;;;4.47;2.10;;;;;;;;;;5029249;28;20029;-77
2021/12/24 15:07:16;;;;;;;4.68;2.35;;;;;;;;;;5026110;28;20026;-77
2021/12/24 15:09:45;;;;;;;5.97;2.40;;;;;;;;;;5033113;28;20045;-77
2021/12/24 15:12:15;;;;;;;3.80;1.90;;;;;;;;;;5032310;28;20033;-77
2021/12/24 15:14:41;;;;;;;5.53;2.28;;;;;;;;;;5030768;28;20107;-77
2021/12/24 15:17:07;;;;;;;4.82;2.22;;;;;;;;;;5015677;28;20113;-77
2021/12/24 15:19:33;;;;;;;4.50;2.28;;;;;;;;;;5012776;28;20112;-77
2021/12/24 15:21:59;;;;;;;5.03;2.20;;;;;;;;;;5031338;28;20025;-77
2021/12/24 15:24:25;;;;;;;5.32;2.22;;;;;;;;;;5032049;28;20021;-77
2021/12/24 15:26:51;;;;;;;5.00;2.10;;;;;;;;;;5031615;28;20422;-77
2021/12/24 15:29:17;;;;;;;4.75;1.98;;;;;;;;;;5032986;28;20475;-77
2021/12/24 15:31:45;;;;;;;4.75;1.92;;;;;;;;;;5032666;28;20034;-77
2021/12/24 15:34:11;;;;;;;4.68;2.30;;;;;;;;;;5032740;28;20460;-77
2021/12/24 15:36:37;;;;;;;4.45;2.30;;;;;;;;;;5038541;28;20514;-76
2021/12/24 15:39:03;;;;;;;5.05;2.13;;;;;;;;;;5037389;28;20026;-76
2021/12/24 15:41:30;;;;;;;4.50;2.25;;;;;;;;;;5038578;28;20468;-77
2021/12/24 15:43:56;;;;;;;4.20;2.20;;;;;;;;;;5031284;28;20614;-77
2021/12/24 15:46:22;;;;;;;4.57;2.28;;;;;;;;;;5031744;28;20365;-77
2021/12/24 15:48:48;;;;;;;4.97;2.08;;;;;;;;;;5027907;28;20400;-77
2021/12/24 15:51:14;;;;;;;4.30;2.22;;;;;;;;;;5029687;28;20041;-78
2021/12/24 15:53:40;;;;;;;4.18;2.03;;;;;;;;;;5032877;28;20033;-77
2021/12/24 15:56:08;;;;;;;5.43;2.25;;;;;;;;;;5031866;28;20036;-75
2021/12/24 15:58:34;;;;;;;4.35;2.13;;;;;;;;;;5032166;28;20096;-77
2021/12/24 16:01:01;;;;;;;4.25;2.00;;;;;;;;;;5032202;28;20026;-77
2021/12/24 16:03:27;;;;;;;6.40;2.10;;;;;;;;;;5031942;28;20425;-77
2021/12/24 16:05:54;;;;;;;5.35;2.00;;;;;;;;;;5031523;28;20036;-77
2021/12/24 16:08:20;;;;;;;4.82;2.35;;;;;;;;;;5032911;28;20021;-78
2021/12/24 16:10:47;;;;;;;5.35;2.75;;;;;;;;;;5031395;28;20171;-77
2021/12/24 16:13:15;;;;;;;4.88;2.50;;;;;;;;;;5031703;28;20036;-77
2021/12/24 16:15:46;;;;;;;5.05;2.15;;;;;;;;;;5031978;28;20021;-76
2021/12/24 16:18:12;;;;;;;4.68;2.33;;;;;;;;;;5030543;28;20032;-77
2021/12/24 16:20:38;;;;;;;4.13;2.08;;;;;;;;;;5031210;28;20033;-77
2021/12/24 16:23:04;;;;;;;4.68;2.30;;;;;;;;;;5030254;28;20026;-77
2021/12/24 16:25:30;;;;;;;4.47;2.20;;;;;;;;;;5034996;28;20045;-76
2021/12/24 16:27:56;;;;;;;4.70;2.35;;;;;;;;;;5032924;28;20463;-77
2021/12/24 16:30:22;;;;;;;4.88;1.90;;;;;;;;;;5031904;28;20216;-77
2021/12/24 16:32:49;;;;;;;5.07;2.28;;;;;;;;;;5031770;28;20045;-75
2021/12/24 16:35:17;;;;;;;4.55;2.10;;;;;;;;;;5026312;28;21578;-76
2021/12/24 16:37:43;;;;;;;4.30;2.42;;;;;;;;;;5031378;28;20030;-77
2021/12/24 16:40:11;;;;;;;5.18;2.30;;;;;;;;;;5031170;28;20026;-76
2021/12/24 16:42:40;;;;;;;5.63;2.70;;;;;;;;;;5029032;28;20679;-77
2021/12/24 16:45:07;;;;;;;4.50;2.28;;;;;;;;;;5031209;28;20033;-77